Time;durP1;ratioP1;P1;durP2;ratioP2;P2;SDS_P1;SDS_P2;PMS_P1;PMS_P2;Temp;Humidity;BMP_temperature;BMP_pressure;BME280_temperature;BME280_humidity;BME280_pressure;Samples;Min_cycle;Max_cycle;Signal;HPM_P1;HPM_P2
2021/08/22 00:00:29;;;;;;;5.33;4.83;;;19.50;99.90;;;;;;6274440;22;20152;-55
2021/08/22 00:02:55;;;;;;;4.77;4.37;;;19.50;99.90;;;;;;6274439;22;20162;-58
2021/08/22 00:05:21;;;;;;;5.30;4.80;;;19.40;99.90;;;;;;6274715;22;20159;-58
2021/08/22 00:07:47;;;;;;;5.63;4.83;;;19.40;99.90;;;;;;6274827;22;20157;-55
2021/08/22 00:10:12;;;;;;;5.27;4.77;;;19.40;99.90;;;;;;6273954;22;20204;-60
2021/08/22 00:12:38;;;;;;;5.30;4.70;;;19.40;99.90;;;;;;6274138;22;20165;-58
2021/08/22 00:15:05;;;;;;;4.67;4.27;;;19.40;99.90;;;;;;6274450;22;20563;-60
2021/08/22 00:17:30;;;;;;;4.93;4.50;;;19.40;99.90;;;;;;6274244;22;20177;-55
2021/08/22 00:19:56;;;;;;;6.47;4.70;;;19.40;99.90;;;;;;6274100;22;20575;-57
2021/08/22 00:22:22;;;;;;;5.20;4.70;;;19.40;99.90;;;;;;6274045;22;20158;-60
2021/08/22 00:24:47;;;;;;;5.17;4.60;;;19.40;99.90;;;;;;6274251;22;20145;-60
2021/08/22 00:27:13;;;;;;;4.90;4.50;;;19.50;99.90;;;;;;6274252;22;20142;-60
2021/08/22 00:29:39;;;;;;;5.80;4.60;;;19.40;99.90;;;;;;6274055;22;20146;-59
2021/08/22 00:32:05;;;;;;;5.40;4.90;;;19.30;99.90;;;;;;6274354;22;20178;-55
2021/08/22 00:34:31;;;;;;;5.20;4.70;;;19.30;99.90;;;;;;6274020;22;20152;-59
2021/08/22 00:36:56;;;;;;;6.33;4.83;;;19.30;99.90;;;;;;6274079;22;20180;-59
2021/08/22 00:39:26;;;;;;;6.37;4.67;;;19.30;99.90;;;;;;6273849;22;20164;-60
2021/08/22 00:41:52;;;;;;;4.63;4.23;;;19.40;99.90;;;;;;6274011;22;20173;-58
2021/08/22 00:44:19;;;;;;;5.03;4.57;;;19.30;99.90;;;;;;6274174;22;20145;-61
2021/08/22 00:46:49;;;;;;;5.43;4.90;;;19.40;99.90;;;;;;6274161;22;20292;-58
2021/08/22 00:49:15;;;;;;;5.73;4.70;;;19.30;99.90;;;;;;6273605;22;20137;-60
2021/08/22 00:51:42;;;;;;;5.43;4.90;;;19.30;99.90;;;;;;6272517;22;20584;-60
2021/08/22 00:54:09;;;;;;;5.87;5.20;;;18.60;99.90;;;;;;6273811;22;20169;-56
2021/08/22 00:56:34;;;;;;;5.17;4.70;;;19.30;99.90;;;;;;6274001;22;20157;-58
2021/08/22 00:59:04;;;;;;;5.57;5.07;;;19.20;99.90;;;;;;6273531;22;20256;-60
2021/08/22 01:01:32;;;;;;;6.00;5.50;;;19.20;99.90;;;;;;6273886;22;20158;-59
2021/08/22 01:04:06;;;;;;;5.60;5.10;;;19.20;99.90;;;;;;6273779;22;20597;-58
2021/08/22 01:07:02;;;;;;;8.03;5.10;;;19.10;99.90;;;;;;6273984;22;20186;-60
2021/08/22 01:09:35;;;;;;;5.77;5.27;;;19.10;99.90;;;;;;6273825;22;20136;-60
2021/08/22 01:12:05;;;;;;;6.03;5.43;;;19.10;99.90;;;;;;6273850;22;20159;-57
2021/08/22 01:14:37;;;;;;;5.90;5.40;;;19.00;99.90;;;;;;6273593;22;20168;-56
2021/08/22 01:17:04;;;;;;;6.33;5.40;;;19.00;99.90;;;;;;6273768;22;20139;-58
2021/08/22 01:20:15;;;;;;;6.70;5.50;;;18.90;99.90;;;;;;6273396;22;20471;-60
2021/08/22 01:22:41;;;;;;;5.63;5.10;;;18.90;99.90;;;;;;6150081;23;20282;-58
2021/08/22 01:25:09;;;;;;;5.80;5.10;;;18.90;99.90;;;;;;6149854;23;20151;-59
2021/08/22 01:27:38;;;;;;;6.37;5.77;;;19.00;99.90;;;;;;6149660;23;20476;-59
2021/08/22 01:30:08;;;;;;;7.83;5.37;;;18.90;99.90;;;;;;6149557;23;20175;-59
2021/08/22 01:32:41;;;;;;;5.97;5.17;;;18.80;99.90;;;;;;6149964;23;20182;-60
2021/08/22 01:35:09;;;;;;;5.37;4.87;;;18.90;99.90;;;;;;6149979;23;20161;-59
2021/08/22 01:37:37;;;;;;;4.90;4.50;;;18.80;99.90;;;;;;6149966;23;20178;-60
2021/08/22 01:40:05;;;;;;;5.90;5.37;;;18.90;99.90;;;;;;6149597;23;20239;-57
2021/08/22 01:42:33;;;;;;;5.57;5.07;;;18.80;99.90;;;;;;6149700;23;20303;-59
2021/08/22 01:45:03;;;;;;;8.70;5.10;;;18.80;99.90;;;;;;6149962;23;20471;-57
2021/08/22 01:47:30;;;;;;;5.77;5.23;;;18.80;99.90;;;;;;6150132;23;20151;-59
2021/08/22 01:49:56;;;;;;;5.10;4.60;;;18.90;99.90;;;;;;6149591;23;20242;-58
2021/08/22 01:52:22;;;;;;;6.27;5.23;;;18.90;99.90;;;;;;6149831;23;20198;-57
2021/08/22 01:54:48;;;;;;;5.53;5.00;;;18.90;99.90;;;;;;6149914;23;20159;-60
2021/08/22 01:57:14;;;;;;;5.60;5.10;;;18.80;99.90;;;;;;6170578;22;20234;-59
2021/08/22 01:59:39;;;;;;;5.93;4.80;;;18.80;99.90;;;;;;6273612;22;20156;-59
2021/08/22 02:02:05;;;;;;;5.90;5.40;;;18.80;99.90;;;;;;6271963;22;20478;-58
2021/08/22 02:04:44;;;;;;;5.27;4.77;;;18.70;99.90;;;;;;6273608;22;20142;-57
2021/08/22 02:07:15;;;;;;;5.30;4.80;;;18.70;99.90;;;;;;6273587;22;20141;-58
2021/08/22 02:10:05;;;;;;;5.27;4.77;;;18.70;99.90;;;;;;6273137;22;20151;-58
2021/08/22 02:12:31;;;;;;;5.90;4.63;;;18.70;99.90;;;;;;6273747;22;20170;-59
2021/08/22 02:15:02;;;;;;;7.30;4.90;;;18.70;99.90;;;;;;6274033;22;20179;-54
2021/08/22 02:17:34;;;;;;;5.00;4.50;;;18.70;99.90;;;;;;6273721;22;20536;-59
2021/08/22 02:20:02;;;;;;;5.10;4.60;;;18.70;99.90;;;;;;6273381;22;20132;-58
2021/08/22 02:22:29;;;;;;;4.30;4.00;;;18.70;99.90;;;;;;6273731;22;20179;-60
2021/08/22 02:24:56;;;;;;;5.90;4.67;;;18.70;99.90;;;;;;6273488;22;20144;-57
2021/08/22 02:27:23;;;;;;;5.47;4.80;;;18.70;99.90;;;;;;6273793;22;20231;-58
2021/08/22 02:29:51;;;;;;;5.60;4.73;;;18.60;99.90;;;;;;6273274;22;20227;-58
2021/08/22 02:32:17;;;;;;;5.83;4.73;;;18.60;99.90;;;;;;6273887;22;20185;-59
2021/08/22 02:34:43;;;;;;;4.93;4.40;;;18.60;99.90;;;;;;6273713;22;20594;-58
2021/08/22 02:37:08;;;;;;;4.93;4.43;;;18.70;99.90;;;;;;6273693;22;20148;-56
2021/08/22 02:39:36;;;;;;;4.80;4.37;;;18.60;99.90;;;;;;6274201;22;20588;-60
2021/08/22 02:42:03;;;;;;;5.93;4.70;;;18.60;99.90;;;;;;6275990;22;20835;-60
2021/08/22 02:44:28;;;;;;;5.80;5.03;;;18.60;99.90;;;;;;6275542;22;20457;-55
2021/08/22 02:46:54;;;;;;;4.50;4.10;;;18.60;99.90;;;;;;6275596;22;20144;-59
2021/08/22 02:49:19;;;;;;;5.17;4.60;;;18.50;99.90;;;;;;6275378;22;20591;-57
2021/08/22 02:51:45;;;;;;;4.83;4.33;;;18.50;99.90;;;;;;6275641;22;20142;-59
2021/08/22 02:54:10;;;;;;;5.43;4.47;;;18.40;99.90;;;;;;6275268;22;20622;-56
2021/08/22 02:56:36;;;;;;;5.50;4.63;;;18.40;99.90;;;;;;6275625;22;20144;-60
2021/08/22 02:59:01;;;;;;;4.80;4.40;;;18.40;99.90;;;;;;6275018;22;20194;-59
2021/08/22 03:01:27;;;;;;;4.73;4.33;;;18.40;99.90;;;;;;6275611;22;20143;-57
2021/08/22 03:03:53;;;;;;;4.80;4.40;;;18.40;99.90;;;;;;6275678;22;20220;-60
2021/08/22 03:06:18;;;;;;;5.40;4.90;;;18.40;99.90;;;;;;6275487;22;20463;-57
2021/08/22 03:08:44;;;;;;;4.87;4.47;;;18.40;99.90;;;;;;6275015;22;20142;-57
2021/08/22 03:11:09;;;;;;;6.40;4.63;;;18.40;99.90;;;;;;6275480;22;20147;-60
2021/08/22 03:13:36;;;;;;;4.80;4.40;;;18.50;99.90;;;;;;6275074;22;20233;-58
2021/08/22 03:16:01;;;;;;;4.60;4.20;;;18.40;99.90;;;;;;6275417;22;20154;-61
2021/08/22 03:18:27;;;;;;;5.10;4.60;;;18.40;99.90;;;;;;6274890;22;20170;-57
2021/08/22 03:20:52;;;;;;;5.57;4.67;;;18.50;99.90;;;;;;6275491;22;20147;-60
2021/08/22 03:23:18;;;;;;;4.73;4.10;;;18.50;99.90;;;;;;6275015;22;20183;-57
2021/08/22 03:25:43;;;;;;;4.60;4.20;;;18.40;99.90;;;;;;6275545;22;20143;-60
2021/08/22 03:28:09;;;;;;;6.20;4.57;;;18.40;99.90;;;;;;6275494;22;20157;-60
2021/08/22 03:30:34;;;;;;;5.13;4.37;;;18.50;99.90;;;;;;6275039;22;20157;-59
2021/08/22 03:33:00;;;;;;;4.90;4.40;;;18.40;99.90;;;;;;6275412;22;20193;-59
2021/08/22 03:35:25;;;;;;;4.50;4.10;;;18.50;99.90;;;;;;6274883;22;20144;-58
2021/08/22 03:37:51;;;;;;;4.67;4.27;;;18.40;99.90;;;;;;6275012;22;20227;-59
2021/08/22 03:40:17;;;;;;;4.70;4.30;;;18.40;99.90;;;;;;6274400;22;20146;-60
2021/08/22 03:42:42;;;;;;;5.20;4.70;;;18.20;99.90;;;;;;6274774;22;20185;-59
2021/08/22 03:45:09;;;;;;;4.67;4.20;;;18.20;99.90;;;;;;6274742;22;20175;-59
2021/08/22 03:47:34;;;;;;;4.83;4.20;;;18.20;99.90;;;;;;6247719;22;20242;-60
2021/08/22 03:50:00;;;;;;;5.30;3.90;;;18.20;99.90;;;;;;6274357;22;20181;-61
2021/08/22 03:52:25;;;;;;;6.00;4.00;;;18.20;99.90;;;;;;6274060;22;20158;-60
2021/08/22 03:54:51;;;;;;;6.60;4.40;;;18.20;99.90;;;;;;6274615;22;20143;-59
2021/08/22 03:57:16;;;;;;;4.50;4.10;;;18.10;99.90;;;;;;6274966;22;20151;-59
2021/08/22 03:59:42;;;;;;;5.93;4.40;;;18.00;99.90;;;;;;6274317;22;20146;-59
2021/08/22 04:02:07;;;;;;;7.07;4.60;;;17.80;99.90;;;;;;6274573;22;20165;-60
2021/08/22 04:04:33;;;;;;;4.53;3.93;;;17.80;99.90;;;;;;6274645;22;20221;-60
2021/08/22 04:06:59;;;;;;;4.50;4.10;;;17.80;99.90;;;;;;6274697;22;20153;-60
2021/08/22 04:09:25;;;;;;;6.33;4.77;;;17.70;99.90;;;;;;6274272;22;20585;-60
2021/08/22 04:11:54;;;;;;;5.03;4.63;;;17.70;99.90;;;;;;6274626;22;20157;-60
2021/08/22 04:14:20;;;;;;;4.90;4.50;;;17.80;99.90;;;;;;6297671;22;20673;-63
2021/08/22 04:16:47;;;;;;;4.90;4.40;;;17.90;99.90;;;;;;6304968;22;20138;-63
2021/08/22 04:19:12;;;;;;;5.13;4.63;;;17.90;99.90;;;;;;6304462;22;20630;-64
2021/08/22 04:21:39;;;;;;;5.83;5.23;;;17.90;99.90;;;;;;6305238;22;20141;-63
2021/08/22 04:24:05;;;;;;;4.97;4.57;;;18.00;99.90;;;;;;6281768;22;20489;-63
2021/08/22 04:26:31;;;;;;;5.20;4.70;;;17.90;99.90;;;;;;6273991;22;20142;-63
2021/08/22 04:28:57;;;;;;;5.00;4.60;;;17.90;99.90;;;;;;6273910;22;20233;-63
2021/08/22 04:31:23;;;;;;;4.80;4.40;;;17.90;99.90;;;;;;6273872;22;20174;-63
2021/08/22 04:33:48;;;;;;;5.10;4.60;;;17.90;99.90;;;;;;6274012;22;20165;-63
2021/08/22 04:36:14;;;;;;;5.37;4.87;;;18.00;99.90;;;;;;6274116;22;20147;-63
2021/08/22 04:38:39;;;;;;;5.67;5.13;;;18.00;99.90;;;;;;6273558;22;20275;-64
2021/08/22 04:41:05;;;;;;;6.37;5.77;;;18.00;99.90;;;;;;6274215;22;20142;-65
2021/08/22 04:43:30;;;;;;;6.10;5.50;;;18.00;99.90;;;;;;6273740;22;20165;-64
2021/08/22 04:45:56;;;;;;;5.37;4.87;;;18.10;99.90;;;;;;6274082;22;20507;-63
2021/08/22 04:48:21;;;;;;;6.90;6.00;;;18.20;99.90;;;;;;6273636;22;20147;-65
2021/08/22 04:50:47;;;;;;;6.17;5.57;;;18.30;99.90;;;;;;6274156;22;20273;-66
2021/08/22 04:53:12;;;;;;;6.10;5.60;;;18.40;99.90;;;;;;6273633;22;20484;-66
2021/08/22 04:55:38;;;;;;;6.27;5.67;;;18.30;99.90;;;;;;6273897;22;20183;-65
2021/08/22 04:58:04;;;;;;;5.53;4.50;;;18.30;99.90;;;;;;6273750;22;20175;-65
2021/08/22 05:00:29;;;;;;;6.00;4.60;;;18.70;99.90;;;;;;6273634;22;20148;-65
2021/08/22 05:02:55;;;;;;;5.83;4.80;;;18.30;99.90;;;;;;6273649;22;20613;-65
2021/08/22 05:05:21;;;;;;;5.30;4.67;;;18.20;99.90;;;;;;6273798;22;20603;-65
2021/08/22 05:07:46;;;;;;;4.80;4.30;;;18.30;99.90;;;;;;6273803;22;20146;-65
2021/08/22 05:10:12;;;;;;;5.53;5.00;;;18.30;99.90;;;;;;6273427;22;20245;-65
2021/08/22 05:12:37;;;;;;;5.27;4.77;;;18.10;99.90;;;;;;6273507;22;20168;-64
2021/08/22 05:15:07;;;;;;;6.40;5.70;;;18.00;99.90;;;;;;6273723;22;20213;-65
2021/08/22 05:17:32;;;;;;;6.47;5.77;;;17.90;99.90;;;;;;6273658;22;20228;-65
2021/08/22 05:19:58;;;;;;;6.50;5.90;;;17.90;99.90;;;;;;6273337;22;20140;-65
2021/08/22 05:22:23;;;;;;;7.10;6.27;;;17.90;99.90;;;;;;6273473;22;20200;-65
2021/08/22 05:24:49;;;;;;;7.90;6.90;;;17.90;99.90;;;;;;6273612;22;20233;-65
2021/08/22 05:27:14;;;;;;;7.70;7.00;;;18.10;99.90;;;;;;6273683;22;20138;-65
2021/08/22 05:29:40;;;;;;;7.53;6.57;;;18.10;99.90;;;;;;6273588;22;20152;-65
2021/08/22 05:32:06;;;;;;;8.40;7.07;;;18.20;99.90;;;;;;6273659;22;20184;-65
2021/08/22 05:34:32;;;;;;;7.77;7.07;;;18.10;99.90;;;;;;6273402;22;20159;-65
2021/08/22 05:36:58;;;;;;;7.57;6.53;;;18.10;99.90;;;;;;6273599;22;20150;-64
2021/08/22 05:39:23;;;;;;;6.50;5.90;;;18.00;99.90;;;;;;6273190;22;20228;-64
2021/08/22 05:41:49;;;;;;;6.50;5.90;;;18.20;99.90;;;;;;6273542;22;20146;-64
2021/08/22 05:44:14;;;;;;;6.50;5.90;;;18.40;99.90;;;;;;6273582;22;20167;-65
2021/08/22 05:46:40;;;;;;;6.90;6.30;;;18.40;99.90;;;;;;6273508;22;20171;-65
2021/08/22 05:49:06;;;;;;;7.70;7.00;;;18.70;99.90;;;;;;6273249;22;20148;-64
2021/08/22 05:51:31;;;;;;;8.53;7.00;;;18.70;99.90;;;;;;6273578;22;20582;-64
2021/08/22 05:53:57;;;;;;;7.80;7.10;;;18.70;99.90;;;;;;6273455;22;20169;-64
2021/08/22 05:56:22;;;;;;;9.17;7.27;;;18.60;99.90;;;;;;6273526;22;20536;-65
2021/08/22 05:58:48;;;;;;;8.53;7.73;;;18.50;99.90;;;;;;6272842;22;20166;-64
2021/08/22 06:01:14;;;;;;;8.13;7.33;;;18.40;99.90;;;;;;6272905;22;20150;-64
2021/08/22 06:03:40;;;;;;;7.70;6.93;;;18.30;99.90;;;;;;6272024;22;20638;-65
2021/08/22 06:06:07;;;;;;;7.60;6.90;;;18.20;99.90;;;;;;6271261;22;20149;-64
2021/08/22 06:08:34;;;;;;;7.00;6.30;;;18.20;99.90;;;;;;6271452;22;20202;-64
2021/08/22 06:10:59;;;;;;;8.13;7.03;;;18.10;99.90;;;;;;6271097;22;20180;-65
2021/08/22 06:13:25;;;;;;;7.60;6.80;;;18.20;99.90;;;;;;6271272;22;20183;-65
2021/08/22 06:15:51;;;;;;;8.07;6.80;;;18.10;99.90;;;;;;6272323;22;20148;-65
2021/08/22 06:18:17;;;;;;;7.63;6.50;;;17.70;99.90;;;;;;6274700;22;20177;-65
2021/08/22 06:20:46;;;;;;;8.23;7.27;;;17.80;99.90;;;;;;6274952;22;20290;-65
2021/08/22 06:23:12;;;;;;;7.87;7.07;;;17.70;99.90;;;;;;6272939;22;20180;-64
2021/08/22 06:25:37;;;;;;;10.13;8.37;;;17.60;99.90;;;;;;6275150;22;20143;-64
2021/08/22 06:28:03;;;;;;;9.17;8.23;;;17.60;99.90;;;;;;6274692;22;20148;-64
2021/08/22 06:30:30;;;;;;;8.60;7.30;;;17.60;99.90;;;;;;6273889;22;20196;-65
2021/08/22 06:32:56;;;;;;;7.87;7.07;;;17.80;99.90;;;;;;6273878;22;20162;-66
2021/08/22 06:35:21;;;;;;;10.67;8.73;;;18.00;99.90;;;;;;6274959;22;20152;-63
2021/08/22 06:37:48;;;;;;;8.13;7.33;;;18.10;99.90;;;;;;6274486;22;20302;-66
2021/08/22 06:40:14;;;;;;;7.57;6.87;;;18.40;99.90;;;;;;6273713;22;20144;-65
2021/08/22 06:42:39;;;;;;;7.13;6.47;;;18.60;99.90;;;;;;6273439;22;20173;-66
2021/08/22 06:45:06;;;;;;;9.47;7.63;;;18.90;99.90;;;;;;6245826;22;20766;-66
2021/08/22 06:47:31;;;;;;;8.30;7.50;;;19.20;99.90;;;;;;6274582;22;20471;-65
2021/08/22 06:49:57;;;;;;;7.50;6.70;;;19.40;99.90;;;;;;6274695;22;20169;-66
2021/08/22 06:52:22;;;;;;;8.00;7.30;;;19.30;99.90;;;;;;6274953;22;20146;-66
2021/08/22 06:54:48;;;;;;;7.90;6.83;;;19.40;99.90;;;;;;6275070;22;20142;-65
2021/08/22 06:57:14;;;;;;;8.00;7.20;;;19.60;99.90;;;;;;6275446;22;20150;-65
2021/08/22 06:59:40;;;;;;;10.63;7.83;;;19.70;99.90;;;;;;6274647;22;20146;-65
2021/08/22 07:02:06;;;;;;;9.67;8.67;;;19.70;99.90;;;;;;6275220;22;20219;-64
2021/08/22 07:04:32;;;;;;;9.20;8.30;;;19.70;99.90;;;;;;6275281;22;20181;-65
2021/08/22 07:06:57;;;;;;;10.20;8.43;;;19.50;99.90;;;;;;6274987;22;20628;-65
2021/08/22 07:09:23;;;;;;;9.20;8.30;;;19.20;99.90;;;;;;6274523;22;20557;-65
2021/08/22 07:11:48;;;;;;;8.90;8.00;;;19.10;99.90;;;;;;6275136;22;20142;-65
2021/08/22 07:14:14;;;;;;;9.37;8.47;;;19.20;99.90;;;;;;6274995;22;20256;-65
2021/08/22 07:16:40;;;;;;;9.33;8.43;;;19.30;99.90;;;;;;6274885;22;20153;-65
2021/08/22 07:19:06;;;;;;;10.17;9.17;;;19.50;99.90;;;;;;6275078;22;20181;-65
2021/08/22 07:21:32;;;;;;;10.47;9.47;;;19.50;99.90;;;;;;6275015;22;20471;-65
2021/08/22 07:23:58;;;;;;;9.17;8.37;;;19.40;99.90;;;;;;6275149;22;20166;-65
2021/08/22 07:26:23;;;;;;;9.23;8.37;;;19.20;99.90;;;;;;6275110;22;20217;-65
2021/08/22 07:28:49;;;;;;;10.07;9.07;;;19.30;99.90;;;;;;6274990;22;20176;-65
2021/08/22 07:31:15;;;;;;;9.10;8.20;;;19.40;99.90;;;;;;6274876;22;20146;-65
2021/08/22 07:33:41;;;;;;;11.10;9.03;;;19.60;99.90;;;;;;6275487;22;20196;-65
2021/08/22 07:36:07;;;;;;;10.97;9.87;;;19.80;99.90;;;;;;6275299;22;20146;-65
2021/08/22 07:38:32;;;;;;;11.10;9.93;;;19.70;99.90;;;;;;6274986;22;20169;-64
2021/08/22 07:40:58;;;;;;;12.70;8.93;;;19.60;99.90;;;;;;6275046;22;20606;-65
2021/08/22 07:43:24;;;;;;;9.77;8.83;;;19.50;99.90;;;;;;6275070;22;20243;-65
2021/08/22 07:45:49;;;;;;;10.57;9.57;;;19.80;99.90;;;;;;6275011;22;20142;-65
2021/08/22 07:48:15;;;;;;;10.73;9.70;;;20.00;99.90;;;;;;6274890;22;20170;-65
2021/08/22 07:50:40;;;;;;;10.57;9.53;;;20.00;99.90;;;;;;6274735;22;20146;-65
2021/08/22 07:53:06;;;;;;;10.17;9.17;;;20.00;99.90;;;;;;6274924;22;20215;-65
2021/08/22 07:55:32;;;;;;;9.53;8.63;;;20.30;99.90;;;;;;6274923;22;20142;-65
2021/08/22 07:57:57;;;;;;;9.50;8.60;;;20.60;99.90;;;;;;6274708;22;20608;-64
2021/08/22 08:00:23;;;;;;;9.93;9.03;;;20.80;99.90;;;;;;6274618;22;20146;-65
2021/08/22 08:02:49;;;;;;;11.03;9.17;;;21.00;99.90;;;;;;6274735;22;20177;-65
2021/08/22 08:05:14;;;;;;;11.47;10.47;;;20.90;99.90;;;;;;6274996;22;20589;-65
2021/08/22 08:07:40;;;;;;;9.93;8.93;;;20.60;99.90;;;;;;6274764;22;20619;-65
2021/08/22 08:10:08;;;;;;;11.00;10.00;;;20.50;99.90;;;;;;6274509;22;20149;-65
2021/08/22 08:12:34;;;;;;;10.50;9.50;;;20.40;99.90;;;;;;6274207;22;20493;-65
2021/08/22 08:15:00;;;;;;;9.83;8.93;;;20.40;99.90;;;;;;6247663;22;20151;-65
2021/08/22 08:17:26;;;;;;;12.07;10.85;;;20.70;99.90;;;;;;6274505;22;20138;-65
2021/08/22 08:19:52;;;;;;;13.20;11.83;;;21.00;99.90;;;;;;6274827;22;20196;-65
2021/08/22 08:22:18;;;;;;;13.33;11.93;;;21.10;99.90;;;;;;6274444;22;20584;-65
2021/08/22 08:24:43;;;;;;;9.83;8.93;;;21.00;99.90;;;;;;6274481;22;20138;-66
2021/08/22 08:27:09;;;;;;;12.17;11.07;;;21.10;99.90;;;;;;6274644;22;20158;-65
2021/08/22 08:29:35;;;;;;;13.95;12.68;;;21.20;99.90;;;;;;6247265;22;20146;-66
2021/08/22 08:32:01;;;;;;;12.65;11.38;;;21.00;99.90;;;;;;6274534;22;20220;-65
2021/08/22 08:34:27;;;;;;;13.27;11.32;;;20.80;99.90;;;;;;6274685;22;20208;-65
2021/08/22 08:36:52;;;;;;;13.13;11.70;;;20.90;99.90;;;;;;6274124;22;20134;-65
2021/08/22 08:39:18;;;;;;;14.10;12.80;;;20.70;99.90;;;;;;6272881;22;20484;-65
2021/08/22 08:41:44;;;;;;;12.10;11.00;;;20.50;99.90;;;;;;6274444;22;20142;-65
2021/08/22 08:44:12;;;;;;;12.23;11.13;;;20.40;99.90;;;;;;6274141;22;20197;-65
2021/08/22 08:46:53;;;;;;;11.80;10.50;;;20.60;99.90;;;;;;6274667;22;20157;-66
2021/08/22 08:49:26;;;;;;;13.93;12.53;;;20.70;99.90;;;;;;6273909;22;20152;-66
2021/08/22 08:52:01;;;;;;;12.43;11.23;;;20.70;99.90;;;;;;6274124;22;20149;-66
2021/08/22 08:54:37;;;;;;;13.60;12.23;;;20.80;99.90;;;;;;6273968;22;20230;-66
2021/08/22 08:57:03;;;;;;;13.07;11.80;;;20.70;99.90;;;;;;6274171;22;20236;-66
2021/08/22 08:59:29;;;;;;;12.10;11.03;;;20.80;99.90;;;;;;6273608;22;20162;-65
2021/08/22 09:01:58;;;;;;;19.45;17.25;;;20.90;99.90;;;;;;6274257;22;20153;-65
2021/08/22 09:04:26;;;;;;;34.40;30.87;;;21.10;99.90;;;;;;6274501;22;20165;-65
2021/08/22 09:07:49;;;;;;;15.83;14.43;;;21.20;99.90;;;;;;6274001;22;20530;-65
2021/08/22 09:10:48;;;;;;;16.23;14.73;;;21.10;99.90;;;;;;6149651;23;20520;-65
2021/08/22 09:13:44;;;;;;;12.80;11.70;;;21.00;99.90;;;;;;6150036;23;20243;-65
2021/08/22 09:16:37;;;;;;;29.70;26.80;;;21.00;99.90;;;;;;6150041;23;20156;-65
2021/08/22 09:19:21;;;;;;;36.53;32.70;;;21.00;99.90;;;;;;6149766;23;20173;-64
2021/08/22 09:21:56;;;;;;;12.70;11.53;;;20.90;99.90;;;;;;6150049;23;20176;-65
2021/08/22 09:24:58;;;;;;;13.07;11.87;;;20.70;99.90;;;;;;6150018;23;20164;-65
2021/08/22 09:27:45;;;;;;;30.90;27.80;;;20.70;99.90;;;;;;6149806;23;20149;-65
2021/08/22 09:30:38;;;;;;;13.50;12.17;;;20.70;99.90;;;;;;6149607;23;20780;-65
2021/08/22 09:33:25;;;;;;;12.57;11.45;;;20.70;99.90;;;;;;6149907;23;20201;-65
2021/08/22 09:36:24;;;;;;;14.47;12.23;;;20.70;99.90;;;;;;6150079;23;20523;-65
2021/08/22 09:39:26;;;;;;;13.53;12.10;;;20.80;99.90;;;;;;6149557;23;20190;-64
2021/08/22 09:42:29;;;;;;;12.27;11.17;;;20.90;99.90;;;;;;6252777;22;20153;-64
2021/08/22 09:45:42;;;;;;;12.77;11.57;;;21.20;99.90;;;;;;6273784;22;20139;-65
2021/08/22 09:48:29;;;;;;;12.02;10.93;;;21.40;99.90;;;;;;6273493;22;20643;-65
2021/08/22 09:51:39;;;;;;;11.80;10.52;;;21.60;99.90;;;;;;6275245;22;20148;-65
2021/08/22 09:54:29;;;;;;;11.65;10.45;;;21.80;99.90;;;;;;6248521;22;20716;-64
2021/08/22 09:57:22;;;;;;;10.65;9.60;;;22.20;99.90;;;;;;6275775;22;20150;-65
2021/08/22 10:00:15;;;;;;;10.60;9.40;;;22.40;99.90;;;;;;6275330;22;20134;-65
2021/08/22 10:02:59;;;;;;;11.05;9.82;;;22.80;99.90;;;;;;6275307;22;20169;-65
2021/08/22 10:05:30;;;;;;;11.18;9.77;;;23.10;99.90;;;;;;6275690;22;20169;-65
2021/08/22 10:08:04;;;;;;;12.00;9.70;;;23.10;99.90;;;;;;6275509;22;20126;-65
2021/08/22 10:10:36;;;;;;;10.13;9.23;;;23.30;99.90;;;;;;6275382;22;20134;-65
2021/08/22 10:13:02;;;;;;;9.65;8.75;;;23.60;99.90;;;;;;6279575;22;20154;-59
2021/08/22 10:15:28;;;;;;;8.77;7.97;;;23.90;99.90;;;;;;6248444;22;20178;-61
2021/08/22 10:17:54;;;;;;;8.13;7.43;;;24.20;99.90;;;;;;6197754;22;20220;-61
2021/08/22 10:20:20;;;;;;;10.00;9.02;;;24.80;99.90;;;;;;6221910;22;20233;-61
2021/08/22 10:22:51;;;;;;;9.55;8.25;;;25.00;99.90;;;;;;6246634;22;20189;-58
2021/08/22 10:25:47;;;;;;;9.63;8.57;;;25.00;99.90;;;;;;6219096;23;20636;-61
2021/08/22 10:28:13;;;;;;;11.00;9.90;;;25.70;99.90;;;;;;6244685;23;20155;-61
2021/08/22 10:30:42;;;;;;;9.43;8.60;;;25.50;99.90;;;;;;6243248;23;20466;-58
2021/08/22 10:33:10;;;;;;;9.00;8.20;;;25.50;99.90;;;;;;6244089;22;20230;-62
2021/08/22 10:35:35;;;;;;;10.88;8.52;;;25.80;99.90;;;;;;6217442;23;20178;-61
2021/08/22 10:38:23;;;;;;;9.60;8.77;;;26.20;99.90;;;;;;6217295;23;20244;-60
2021/08/22 10:40:49;;;;;;;10.30;9.40;;;26.40;99.90;;;;;;6243676;23;20158;-61
2021/08/22 10:43:15;;;;;;;8.68;7.88;;;26.60;99.90;;;;;;6217206;23;20178;-61
2021/08/22 10:45:40;;;;;;;8.30;7.28;;;26.80;99.90;;;;;;6244230;23;20463;-61
2021/08/22 10:48:26;;;;;;;9.38;8.55;;;27.00;99.90;;;;;;6244280;23;20493;-59
2021/08/22 10:50:58;;;;;;;7.10;6.50;;;27.30;99.90;;;;;;6120615;23;20644;-59
2021/08/22 10:53:24;;;;;;;7.20;6.60;;;27.60;99.90;;;;;;6121283;23;20648;-59
2021/08/22 10:55:50;;;;;;;8.88;8.00;;;28.00;99.90;;;;;;6072740;23;20162;-59
2021/08/22 10:58:15;;;;;;;8.90;8.20;;;27.70;99.90;;;;;;6121165;23;20707;-61
2021/08/22 11:00:42;;;;;;;9.68;8.77;;;27.20;99.90;;;;;;6120328;23;20153;-61
2021/08/22 11:03:23;;;;;;;9.40;7.53;;;26.80;99.90;;;;;;6096950;23;20177;-58
2021/08/22 11:05:48;;;;;;;9.05;8.25;;;26.70;99.90;;;;;;6096919;23;20548;-58
2021/08/22 11:08:18;;;;;;;11.45;10.45;;;26.80;99.90;;;;;;6096906;23;20157;-59
2021/08/22 11:11:03;;;;;;;10.30;9.30;;;26.70;99.90;;;;;;6120397;23;20465;-61
2021/08/22 11:13:37;;;;;;;9.27;8.45;;;26.20;99.90;;;;;;6072589;23;20232;-61
2021/08/22 11:16:07;;;;;;;9.98;9.18;;;26.20;99.90;;;;;;6096821;23;20244;-59
2021/08/22 11:18:35;;;;;;;9.02;8.13;;;26.30;99.90;;;;;;6120367;23;20201;-62
2021/08/22 11:21:00;;;;;;;9.40;8.50;;;26.20;99.90;;;;;;6096844;23;20154;-58
2021/08/22 11:23:27;;;;;;;10.02;9.13;;;26.40;99.90;;;;;;6096700;23;20173;-58
2021/08/22 11:26:03;;;;;;;9.95;9.15;;;26.40;99.90;;;;;;6120863;23;20168;-56
2021/08/22 11:28:29;;;;;;;9.02;8.13;;;26.50;99.90;;;;;;6181944;23;20241;-56
2021/08/22 11:30:54;;;;;;;7.93;7.18;;;26.70;99.90;;;;;;6243597;23;20155;-60
2021/08/22 11:33:20;;;;;;;8.30;7.43;;;27.30;99.90;;;;;;6216891;23;20167;-58
2021/08/22 11:35:47;;;;;;;9.77;8.90;;;27.70;99.90;;;;;;6216773;23;20683;-58
2021/08/22 11:38:14;;;;;;;9.05;8.23;;;28.00;99.90;;;;;;6216661;23;20640;-57
2021/08/22 11:40:41;;;;;;;9.25;8.27;;;28.10;99.90;;;;;;6216223;23;20233;-58
2021/08/22 11:43:08;;;;;;;9.23;8.43;;;27.50;99.90;;;;;;6243311;22;20228;-56
2021/08/22 11:45:40;;;;;;;8.93;8.13;;;27.40;99.90;;;;;;6217142;23;20620;-59
2021/08/22 11:48:13;;;;;;;7.43;6.72;;;27.40;99.90;;;;;;6218252;23;20213;-60
2021/08/22 11:50:39;;;;;;;9.43;8.52;;;27.10;99.90;;;;;;6190689;23;20147;-58
2021/08/22 11:53:06;;;;;;;9.80;8.73;;;27.00;99.90;;;;;;6216781;23;20198;-57
2021/08/22 11:55:37;;;;;;;10.82;9.73;;;26.90;99.90;;;;;;6216654;23;20147;-57
2021/08/22 11:58:07;;;;;;;7.50;6.72;;;26.90;99.90;;;;;;6217395;23;20170;-59
2021/08/22 12:00:33;;;;;;;8.50;7.70;;;27.40;99.90;;;;;;6242505;23;20159;-60
2021/08/22 12:03:01;;;;;;;7.18;6.57;;;27.70;99.90;;;;;;6243573;22;20773;-60
2021/08/22 12:05:28;;;;;;;6.70;6.10;;;28.20;99.90;;;;;;6243717;23;20147;-59
2021/08/22 12:08:21;;;;;;;8.07;7.32;;;28.60;99.90;;;;;;6191461;23;20159;-57
2021/08/22 12:10:47;;;;;;;7.60;6.90;;;29.00;99.90;;;;;;6210728;23;20230;-59
2021/08/22 12:13:20;;;;;;;6.15;5.63;;;29.10;99.90;;;;;;6216038;23;20197;-60
2021/08/22 12:15:50;;;;;;;8.30;7.50;;;29.30;99.90;;;;;;6216766;23;20139;-58
2021/08/22 12:18:26;;;;;;;6.80;6.20;;;29.00;99.90;;;;;;6216453;23;20163;-59
2021/08/22 12:21:16;;;;;;;6.80;6.20;;;28.50;99.90;;;;;;6218128;23;20131;-56
2021/08/22 12:23:44;;;;;;;7.55;6.85;;;28.10;99.90;;;;;;6243336;22;20785;-58
2021/08/22 12:26:30;;;;;;;6.68;6.07;;;28.20;99.90;;;;;;6216885;23;20150;-56
2021/08/22 12:29:07;;;;;;;6.72;5.47;;;28.00;99.90;;;;;;6216190;23;20143;-57
2021/08/22 12:31:35;;;;;;;6.18;5.63;;;28.10;99.90;;;;;;6216885;23;20135;-60
2021/08/22 12:34:09;;;;;;;6.80;6.20;;;28.30;99.90;;;;;;6216714;23;20178;-58
2021/08/22 12:36:38;;;;;;;7.30;6.65;;;28.50;99.90;;;;;;6218003;23;20146;-59
2021/08/22 12:39:06;;;;;;;6.07;5.57;;;28.40;99.90;;;;;;6242530;23;20182;-58
2021/08/22 12:41:38;;;;;;;8.57;6.25;;;28.30;99.90;;;;;;6217301;23;20159;-60
2021/08/22 12:44:13;;;;;;;5.78;5.18;;;28.00;99.90;;;;;;6243395;22;20257;-57
2021/08/22 12:46:40;;;;;;;6.60;6.00;;;27.70;99.90;;;;;;6217048;23;20153;-58
2021/08/22 12:49:07;;;;;;;5.75;5.25;;;27.60;99.90;;;;;;6242614;23;20158;-55
2021/08/22 12:51:34;;;;;;;5.70;5.20;;;27.20;99.90;;;;;;6216422;23;20536;-60
2021/08/22 12:54:00;;;;;;;6.60;6.03;;;27.10;99.90;;;;;;6217167;23;20182;-60